createdAt,value
2022-09-18T00:01:42.475Z,11.39
2022-09-18T00:04:14.941Z,11.36
2022-09-18T00:06:45.862Z,11.37
2022-09-18T00:09:16.033Z,11.41
2022-09-18T00:11:46.308Z,11.38
2022-09-18T00:14:16.644Z,11.32
2022-09-18T00:16:45.163Z,11.27
2022-09-18T00:19:14.998Z,11.25
2022-09-18T00:21:45.886Z,11.32
2022-09-18T00:24:18.744Z,11.30
2022-09-18T00:26:47.430Z,11.28
2022-09-18T00:29:17.269Z,11.33
2022-09-18T00:31:46.471Z,11.28
2022-09-18T00:34:16.553Z,11.32
2022-09-18T00:36:46.441Z,11.24
2022-09-18T00:39:15.293Z,11.23
2022-09-18T00:41:44.980Z,11.25
2022-09-18T00:44:36.634Z,11.32
2022-09-18T00:47:19.334Z,11.25
2022-09-18T00:49:51.012Z,11.29
2022-09-18T00:52:25.458Z,11.29
2022-09-18T00:54:57.625Z,11.28
2022-09-18T00:57:30.450Z,11.20
2022-09-18T00:59:59.068Z,11.16
2022-09-18T01:02:28.050Z,11.15
2022-09-18T01:04:56.598Z,11.07
2022-09-18T01:07:38.186Z,11.11
2022-09-18T01:10:24.430Z,10.99
2022-09-18T01:12:56.440Z,10.89
2022-09-18T01:15:31.927Z,10.85
2022-09-18T01:18:10.875Z,10.85
2022-09-18T01:20:55.643Z,10.73
2022-09-18T01:24:02.918Z,10.65
2022-09-18T01:26:45.000Z,10.57
2022-09-18T01:29:22.890Z,10.56
2022-09-18T01:31:56.564Z,10.51
2022-09-18T01:34:31.421Z,10.48
2022-09-18T01:37:05.092Z,10.38
2022-09-18T01:39:38.930Z,10.39
2022-09-18T01:42:11.102Z,10.35
2022-09-18T01:44:45.524Z,10.35
2022-09-18T01:47:16.158Z,10.35
2022-09-18T01:49:47.859Z,10.30
2022-09-18T01:52:21.932Z,10.30
2022-09-18T01:54:57.736Z,10.29
2022-09-18T01:57:29.528Z,10.24
2022-09-18T02:00:03.793Z,10.26
2022-09-18T02:02:48.276Z,10.29
2022-09-18T02:05:22.234Z,10.40
2022-09-18T02:08:10.476Z,10.30
2022-09-18T02:10:52.062Z,10.29
2022-09-18T02:13:25.477Z,10.25
2022-09-18T02:16:02.520Z,10.24
2022-09-18T02:18:34.781Z,10.27
2022-09-18T02:21:11.328Z,10.37
2022-09-18T02:23:42.252Z,10.29
2022-09-18T02:26:15.096Z,10.31
2022-09-18T02:28:44.959Z,10.28
2022-09-18T02:31:15.063Z,10.20
2022-09-18T02:33:43.702Z,10.10
2022-09-18T02:36:38.036Z,10.19
2022-09-18T02:39:18.813Z,10.19
2022-09-18T02:41:55.181Z,10.21
2022-09-18T02:44:31.036Z,10.26
2022-09-18T02:47:10.460Z,10.22
2022-09-18T02:49:47.656Z,10.28
2022-09-18T02:52:20.014Z,10.25
2022-09-18T02:54:56.313Z,10.31
2022-09-18T02:57:31.960Z,10.25
2022-09-18T03:00:02.834Z,10.31
2022-09-18T03:02:35.153Z,10.29
2022-09-18T03:05:03.824Z,10.35
2022-09-18T03:07:55.040Z,10.30
2022-09-18T03:10:23.456Z,10.22
2022-09-18T03:12:52.224Z,10.28
2022-09-18T03:15:22.321Z,10.37
2022-09-18T03:17:53.682Z,10.45
2022-09-18T03:20:22.177Z,10.41
2022-09-18T03:22:50.892Z,10.44
2022-09-18T03:25:19.704Z,10.53
2022-09-18T03:27:47.986Z,10.48
2022-09-18T03:30:26.541Z,10.54
2022-09-18T03:32:56.760Z,10.54
2022-09-18T03:35:25.388Z,10.50
2022-09-18T03:37:58.537Z,10.55
2022-09-18T03:40:31.164Z,10.58
2022-09-18T03:43:02.647Z,10.59
2022-09-18T03:45:31.045Z,10.63
2022-09-18T03:48:00.872Z,10.63
2022-09-18T03:50:30.040Z,10.67
2022-09-18T03:52:58.517Z,10.67
2022-09-18T03:55:37.930Z,10.63
2022-09-18T03:58:29.382Z,10.38
2022-09-18T04:01:32.326Z,10.42
2022-09-18T04:04:37.626Z,10.43
2022-09-18T04:07:14.956Z,10.35
2022-09-18T04:10:00.513Z,10.22
2022-09-18T04:12:29.293Z,10.21
2022-09-18T04:15:10.763Z,10.23
2022-09-18T04:17:39.089Z,10.24
2022-09-18T04:20:09.784Z,10.24
2022-09-18T04:22:38.464Z,10.25
2022-09-18T04:25:07.809Z,10.33
2022-09-18T04:27:36.397Z,10.34
2022-09-18T04:30:05.219Z,10.38
2022-09-18T04:32:36.175Z,10.36
2022-09-18T04:35:05.855Z,10.37
2022-09-18T04:37:35.948Z,10.36
2022-09-18T04:40:05.472Z,10.36
2022-09-18T04:42:33.900Z,10.29
2022-09-18T04:45:03.308Z,10.23
2022-09-18T04:47:31.918Z,10.25
2022-09-18T04:50:00.340Z,10.27
2022-09-18T04:52:31.337Z,10.24
2022-09-18T04:55:01.054Z,10.13
2022-09-18T04:57:29.833Z,10.24
2022-09-18T04:59:58.085Z,10.26
2022-09-18T05:02:26.482Z,10.19
2022-09-18T05:04:55.385Z,10.20
2022-09-18T05:07:32.210Z,10.18
2022-09-18T05:10:02.157Z,10.23
2022-09-18T05:12:32.806Z,10.11
2022-09-18T05:15:01.446Z,10.19
2022-09-18T05:17:30.185Z,10.18
2022-09-18T05:20:01.387Z,10.20
2022-09-18T05:22:36.843Z,10.18
2022-09-18T05:25:11.504Z,10.22
2022-09-18T05:27:39.875Z,10.13
2022-09-18T05:30:10.630Z,10.16
2022-09-18T05:32:59.282Z,10.16
2022-09-18T05:35:31.936Z,10.27
2022-09-18T05:38:01.451Z,10.20
2022-09-18T05:40:34.591Z,10.14
2022-09-18T05:43:03.961Z,10.14
2022-09-18T05:45:34.668Z,10.21
2022-09-18T05:48:08.641Z,10.19
2022-09-18T05:50:37.540Z,10.23
2022-09-18T05:53:08.605Z,10.19
2022-09-18T05:55:48.095Z,10.19
2022-09-18T05:58:18.023Z,10.27
2022-09-18T06:00:47.116Z,10.22
2022-09-18T06:03:24.724Z,10.11
2022-09-18T06:05:54.633Z,10.16
2022-09-18T06:08:24.424Z,10.21
2022-09-18T06:10:54.810Z,10.30
2022-09-18T06:13:23.254Z,10.25
2022-09-18T06:15:54.093Z,10.23
2022-09-18T06:18:33.198Z,10.27
2022-09-18T06:21:03.322Z,10.26
2022-09-18T06:23:32.583Z,10.27
2022-09-18T06:26:11.477Z,10.35
2022-09-18T06:28:43.152Z,10.33
2022-09-18T06:31:12.097Z,10.45
2022-09-18T06:34:04.056Z,10.51
2022-09-18T06:36:32.437Z,10.55
2022-09-18T06:39:20.998Z,10.66
2022-09-18T06:41:53.917Z,10.63
2022-09-18T06:44:32.537Z,10.78
2022-09-18T06:47:05.540Z,10.81
2022-09-18T06:49:41.984Z,10.84
2022-09-18T06:52:10.692Z,10.98
2022-09-18T06:54:42.639Z,10.95
2022-09-18T06:57:12.392Z,10.95
2022-09-18T06:59:40.753Z,11.00
2022-09-18T07:02:18.583Z,11.04
2022-09-18T07:04:57.441Z,11.03
2022-09-18T07:07:26.833Z,11.03
2022-09-18T07:09:57.625Z,11.07
2022-09-18T07:12:32.695Z,11.10
2022-09-18T07:15:04.139Z,11.10
2022-09-18T07:17:33.202Z,11.15
2022-09-18T07:20:03.373Z,11.30
2022-09-18T07:22:43.702Z,11.38
2022-09-18T07:25:14.937Z,11.48
2022-09-18T07:27:46.465Z,11.56
2022-09-18T07:30:16.907Z,11.59
2022-09-18T07:32:46.606Z,11.70
2022-09-18T07:35:18.977Z,11.67
2022-09-18T07:37:47.340Z,11.76
2022-09-18T07:40:20.768Z,11.89
2022-09-18T07:43:09.004Z,12.05
2022-09-18T07:45:40.925Z,12.06
2022-09-18T07:48:09.359Z,12.17
2022-09-18T07:50:43.463Z,12.22
2022-09-18T07:53:11.801Z,12.28
2022-09-18T07:55:45.364Z,12.35
2022-09-18T07:58:15.908Z,12.40
2022-09-18T08:00:57.097Z,12.40
2022-09-18T08:03:26.440Z,12.32
2022-09-18T08:06:23.984Z,12.40
2022-09-18T08:09:03.297Z,12.49
2022-09-18T08:11:57.988Z,12.57
2022-09-18T08:14:41.807Z,12.78
2022-09-18T08:17:32.828Z,12.88
2022-09-18T08:20:11.998Z,13.02
2022-09-18T08:22:50.930Z,13.04
2022-09-18T08:25:21.358Z,13.10
2022-09-18T08:27:51.242Z,13.11
2022-09-18T08:30:32.313Z,13.10
2022-09-18T08:33:06.756Z,13.03
2022-09-18T08:35:35.865Z,13.02
2022-09-18T08:38:17.359Z,13.03
2022-09-18T08:41:12.746Z,13.04
2022-09-18T08:44:00.328Z,13.04
2022-09-18T08:46:36.769Z,12.99
2022-09-18T08:49:18.551Z,13.02
2022-09-18T08:51:54.585Z,13.05
2022-09-18T08:54:30.021Z,13.17
2022-09-18T08:57:38.474Z,13.47
2022-09-18T09:00:20.668Z,13.79
2022-09-18T09:03:24.320Z,14.08
2022-09-18T09:05:59.442Z,14.47
2022-09-18T09:08:46.992Z,14.71
2022-09-18T09:11:23.681Z,14.68
2022-09-18T09:14:16.395Z,14.78
2022-09-18T09:16:51.348Z,14.78
2022-09-18T09:19:31.507Z,14.84
2022-09-18T09:22:08.591Z,14.99
2022-09-18T09:24:46.999Z,14.93
2022-09-18T09:28:00.111Z,15.07
2022-09-18T09:30:54.655Z,15.29
2022-09-18T09:33:53.357Z,15.40
2022-09-18T09:36:43.506Z,15.40
2022-09-18T09:39:19.833Z,15.30
2022-09-18T09:41:54.995Z,15.42
2022-09-18T09:44:30.693Z,15.39
2022-09-18T09:47:14.734Z,15.33
2022-09-18T09:49:56.358Z,15.17
2022-09-18T09:52:27.934Z,15.13
2022-09-18T09:55:19.677Z,14.88
2022-09-18T09:58:00.957Z,14.98
2022-09-18T10:00:35.248Z,15.11
2022-09-18T10:03:29.837Z,15.24
2022-09-18T10:06:03.835Z,15.17
2022-09-18T10:08:42.013Z,15.33
2022-09-18T10:11:13.208Z,15.45
2022-09-18T10:13:49.906Z,15.53
2022-09-18T10:16:21.580Z,15.45
2022-09-18T10:18:50.997Z,15.41
2022-09-18T10:21:23.452Z,15.37
2022-09-18T10:24:00.064Z,15.15
2022-09-18T10:26:35.920Z,15.14
2022-09-18T10:29:04.405Z,15.15
2022-09-18T10:31:49.409Z,15.02
2022-09-18T10:34:40.207Z,14.93
2022-09-18T10:37:15.807Z,14.98
2022-09-18T10:39:54.017Z,15.09
2022-09-18T10:42:25.608Z,15.17
2022-09-18T10:45:04.836Z,15.11
2022-09-18T10:47:37.627Z,15.06
2022-09-18T10:50:19.161Z,15.15
2022-09-18T10:52:54.050Z,15.19
2022-09-18T10:55:32.241Z,15.23
2022-09-18T10:58:14.310Z,15.30
2022-09-18T11:00:50.958Z,15.39
2022-09-18T11:03:49.945Z,15.42
2022-09-18T11:06:29.773Z,15.55
2022-09-18T11:09:03.277Z,15.99
2022-09-18T11:11:38.427Z,15.85
2022-09-18T11:14:19.126Z,15.90
2022-09-18T11:16:59.135Z,15.91
2022-09-18T11:19:30.992Z,16.06
2022-09-18T11:22:03.785Z,16.30
2022-09-18T11:24:42.008Z,16.07
2022-09-18T11:27:21.783Z,15.74
2022-09-18T11:29:52.179Z,15.66
2022-09-18T11:32:25.267Z,16.04
2022-09-18T11:34:58.932Z,16.21
2022-09-18T11:37:36.814Z,16.20
2022-09-18T11:40:15.878Z,16.69
2022-09-18T11:42:50.732Z,16.20
2022-09-18T11:45:35.776Z,15.85
2022-09-18T11:48:12.511Z,15.96
2022-09-18T11:50:41.031Z,16.02
2022-09-18T11:53:17.749Z,16.29
2022-09-18T11:55:51.005Z,16.64
2022-09-18T11:58:26.951Z,17.07
2022-09-18T12:01:10.746Z,17.19
2022-09-18T12:03:44.823Z,16.94
2022-09-18T12:06:22.676Z,16.37
2022-09-18T12:08:58.756Z,16.34
2022-09-18T12:11:37.428Z,16.47
2022-09-18T12:14:15.659Z,16.65
2022-09-18T12:17:00.753Z,16.60
2022-09-18T12:19:35.622Z,16.54
2022-09-18T12:22:12.436Z,16.49
2022-09-18T12:24:41.484Z,16.57
2022-09-18T12:27:27.661Z,16.75
2022-09-18T12:30:04.879Z,17.09
2022-09-18T12:32:59.090Z,17.19
2022-09-18T12:35:46.748Z,17.17
2022-09-18T12:38:31.121Z,16.81
2022-09-18T12:41:13.318Z,16.57
2022-09-18T12:43:59.491Z,16.54
2022-09-18T12:46:38.478Z,16.71
2022-09-18T12:49:31.045Z,16.86
2022-09-18T12:52:08.356Z,16.49
2022-09-18T12:55:05.064Z,16.19
2022-09-18T12:57:45.399Z,15.80
2022-09-18T13:00:16.277Z,15.72
2022-09-18T13:02:53.556Z,15.73
2022-09-18T13:05:28.473Z,15.82
2022-09-18T13:08:04.121Z,16.14
2022-09-18T13:10:38.755Z,16.61
2022-09-18T13:13:14.338Z,16.86
2022-09-18T13:15:47.301Z,17.06
2022-09-18T13:18:27.840Z,17.63
2022-09-18T13:21:02.244Z,18.00
2022-09-18T13:23:33.892Z,17.40
2022-09-18T13:26:03.952Z,16.87
2022-09-18T13:28:33.384Z,16.46
2022-09-18T13:31:26.418Z,16.66
2022-09-18T13:33:59.033Z,17.31
2022-09-18T13:36:29.812Z,17.30
2022-09-18T13:39:05.978Z,17.25
2022-09-18T13:41:43.731Z,17.41
2022-09-18T13:44:20.518Z,17.21
2022-09-18T13:46:50.388Z,16.92
2022-09-18T13:49:29.815Z,16.57
2022-09-18T13:52:18.360Z,16.03
2022-09-18T13:55:01.927Z,15.71
2022-09-18T13:57:31.907Z,15.62
2022-09-18T14:00:02.441Z,15.49
2022-09-18T14:02:41.420Z,15.48
2022-09-18T14:05:34.026Z,15.60
2022-09-18T14:08:36.230Z,15.73
2022-09-18T14:11:17.761Z,15.70
2022-09-18T14:13:54.609Z,15.57
2022-09-18T14:16:30.789Z,15.37
2022-09-18T14:19:04.255Z,15.43
2022-09-18T14:21:34.627Z,15.86
2022-09-18T14:24:21.143Z,16.36
2022-09-18T14:27:02.885Z,16.50
2022-09-18T14:29:34.542Z,16.75
2022-09-18T14:32:03.725Z,16.91
2022-09-18T14:34:37.250Z,16.65
2022-09-18T14:37:24.593Z,16.00
2022-09-18T14:39:55.379Z,15.61
2022-09-18T14:42:33.111Z,15.52
2022-09-18T14:45:19.571Z,15.54
2022-09-18T14:47:49.930Z,15.49
2022-09-18T14:50:29.232Z,15.28
2022-09-18T14:52:58.751Z,15.02
2022-09-18T14:55:32.401Z,14.85
2022-09-18T14:58:06.246Z,14.81
2022-09-18T15:00:36.914Z,14.65
2022-09-18T15:03:08.765Z,14.60
2022-09-18T15:05:37.963Z,14.51
2022-09-18T15:08:10.545Z,14.41
2022-09-18T15:10:40.831Z,14.44
2022-09-18T15:13:13.449Z,14.41
2022-09-18T15:15:44.122Z,14.33
2022-09-18T15:18:21.304Z,14.26
2022-09-18T15:20:51.536Z,14.11
2022-09-18T15:23:21.786Z,14.05
2022-09-18T15:25:53.121Z,14.01
2022-09-18T15:28:25.477Z,14.08
2022-09-18T15:31:00.577Z,14.14
2022-09-18T15:33:29.364Z,14.23
2022-09-18T15:35:58.448Z,14.27
2022-09-18T15:38:35.169Z,14.24
2022-09-18T15:41:22.361Z,14.34
2022-09-18T15:43:52.078Z,14.45
2022-09-18T15:46:28.409Z,14.48
2022-09-18T15:49:00.421Z,14.63
2022-09-18T15:51:30.229Z,14.66
2022-09-18T15:54:17.754Z,14.78
2022-09-18T15:56:51.733Z,14.89
2022-09-18T15:59:31.286Z,14.83
2022-09-18T16:02:04.888Z,14.85
2022-09-18T16:04:34.550Z,14.86
2022-09-18T16:07:06.047Z,14.86
2022-09-18T16:09:42.970Z,14.80
2022-09-18T16:12:37.977Z,14.73
2022-09-18T16:15:23.149Z,14.70
2022-09-18T16:18:06.145Z,14.66
2022-09-18T16:20:39.463Z,14.66
2022-09-18T16:23:24.119Z,14.65
2022-09-18T16:26:10.662Z,14.58
2022-09-18T16:28:42.980Z,14.66
2022-09-18T16:31:15.307Z,14.62
2022-09-18T16:33:55.558Z,14.63
2022-09-18T16:36:30.455Z,14.65
2022-09-18T16:39:01.604Z,14.60
2022-09-18T16:41:31.224Z,14.56
2022-09-18T16:44:01.048Z,14.55
2022-09-18T16:46:35.347Z,14.51
2022-09-18T16:49:04.144Z,14.19
2022-09-18T16:51:33.122Z,13.79
2022-09-18T16:54:01.535Z,13.33
2022-09-18T16:56:32.808Z,12.99
2022-09-18T16:59:04.398Z,12.76
2022-09-18T17:01:53.918Z,12.57
2022-09-18T17:04:25.219Z,12.38
2022-09-18T17:06:53.857Z,12.32
2022-09-18T17:09:23.853Z,12.20
2022-09-18T17:11:52.232Z,12.17
2022-09-18T17:14:20.843Z,12.16
2022-09-18T17:16:50.684Z,12.16
2022-09-18T17:19:19.238Z,12.20
2022-09-18T17:21:47.730Z,12.19
2022-09-18T17:24:17.377Z,12.23
2022-09-18T17:26:45.668Z,12.20
2022-09-18T17:29:14.023Z,12.23
2022-09-18T17:31:42.605Z,12.28
2022-09-18T17:34:12.474Z,12.27
2022-09-18T17:36:41.082Z,12.28
2022-09-18T17:39:09.351Z,12.32
2022-09-18T17:41:38.186Z,12.37
2022-09-18T17:44:10.136Z,12.33
2022-09-18T17:46:38.516Z,12.13
2022-09-18T17:49:07.253Z,11.96
2022-09-18T17:51:37.136Z,11.88
2022-09-18T17:54:06.716Z,11.78
2022-09-18T17:56:35.305Z,11.78
2022-09-18T17:59:06.273Z,11.73
2022-09-18T18:01:37.612Z,11.76
2022-09-18T18:04:06.615Z,11.74
2022-09-18T18:06:37.004Z,11.71
2022-09-18T18:09:06.672Z,11.75
2022-09-18T18:11:35.135Z,11.76
2022-09-18T18:14:03.500Z,11.71
2022-09-18T18:16:32.633Z,11.68
2022-09-18T18:19:03.290Z,11.64
2022-09-18T18:21:33.383Z,11.66
2022-09-18T18:24:05.500Z,11.66
2022-09-18T18:26:34.091Z,11.69
2022-09-18T18:29:03.300Z,11.71
2022-09-18T18:31:34.139Z,11.68
2022-09-18T18:34:02.629Z,11.72
2022-09-18T18:36:33.639Z,11.68
2022-09-18T18:39:05.944Z,11.70
2022-09-18T18:41:34.788Z,11.75
2022-09-18T18:44:05.765Z,11.74
2022-09-18T18:46:36.731Z,11.66
2022-09-18T18:49:09.467Z,11.60
2022-09-18T18:51:45.633Z,11.53
2022-09-18T18:54:16.967Z,11.56
2022-09-18T18:56:46.386Z,11.59
2022-09-18T18:59:16.461Z,11.48
2022-09-18T19:01:45.606Z,11.39
2022-09-18T19:04:15.899Z,11.36
2022-09-18T19:06:45.256Z,11.29
2022-09-18T19:09:20.307Z,11.36
2022-09-18T19:11:49.796Z,11.31
2022-09-18T19:14:20.480Z,11.31
2022-09-18T19:16:49.957Z,11.20
2022-09-18T19:19:23.451Z,11.23
2022-09-18T19:21:52.250Z,11.29
2022-09-18T19:24:22.544Z,11.24
2022-09-18T19:26:50.972Z,11.39
2022-09-18T19:29:21.655Z,11.46
2022-09-18T19:31:50.939Z,11.37
2022-09-18T19:34:21.154Z,11.26
2022-09-18T19:36:50.476Z,11.30
2022-09-18T19:39:24.080Z,11.17
2022-09-18T19:41:55.885Z,11.19
2022-09-18T19:44:31.296Z,11.15
2022-09-18T19:47:03.348Z,11.13
2022-09-18T19:49:34.594Z,11.16
2022-09-18T19:52:03.354Z,11.20
2022-09-18T19:54:33.297Z,11.19
2022-09-18T19:57:01.613Z,11.14
2022-09-18T19:59:29.968Z,11.17
2022-09-18T20:01:58.593Z,11.26
2022-09-18T20:04:26.977Z,11.32
2022-09-18T20:06:55.321Z,11.29
2022-09-18T20:09:28.574Z,11.24
2022-09-18T20:11:58.395Z,11.22
2022-09-18T20:14:26.879Z,11.16
2022-09-18T20:16:55.706Z,11.09
2022-09-18T20:19:24.813Z,11.00
2022-09-18T20:21:53.786Z,10.94
2022-09-18T20:24:22.336Z,10.82
2022-09-18T20:26:51.446Z,10.78
2022-09-18T20:29:21.252Z,10.70
2022-09-18T20:31:50.112Z,10.71
2022-09-18T20:34:22.451Z,10.58
2022-09-18T20:36:52.088Z,10.54
2022-09-18T20:39:21.696Z,10.50
2022-09-18T20:41:50.146Z,10.51
2022-09-18T20:44:24.281Z,10.51
2022-09-18T20:46:56.660Z,10.45
2022-09-18T20:49:25.407Z,10.48
2022-09-18T20:51:54.484Z,10.53
2022-09-18T20:54:23.235Z,10.48
2022-09-18T20:56:51.671Z,10.51
2022-09-18T20:59:21.948Z,10.49
2022-09-18T21:01:51.806Z,10.40
2022-09-18T21:04:22.802Z,10.35
2022-09-18T21:06:56.417Z,10.37
2022-09-18T21:09:26.360Z,10.28
2022-09-18T21:11:56.843Z,10.28
2022-09-18T21:14:29.664Z,10.30
2022-09-18T21:16:58.041Z,10.24
2022-09-18T21:19:28.506Z,10.27
2022-09-18T21:21:57.168Z,10.22
2022-09-18T21:24:26.163Z,10.14
2022-09-18T21:26:54.469Z,10.06
2022-09-18T21:29:25.221Z,10.03
2022-09-18T21:31:59.091Z,10.05
2022-09-18T21:34:31.503Z,10.00
2022-09-18T21:37:01.701Z,9.90
2022-09-18T21:39:31.071Z,9.90
2022-09-18T21:42:01.606Z,9.82
2022-09-18T21:44:31.979Z,9.77
2022-09-18T21:47:04.022Z,9.78
2022-09-18T21:49:37.518Z,9.80
2022-09-18T21:52:07.652Z,9.76
2022-09-18T21:54:36.634Z,9.70
2022-09-18T21:57:05.709Z,9.65
2022-09-18T21:59:36.576Z,9.69
2022-09-18T22:02:09.383Z,9.74
2022-09-18T22:04:41.985Z,9.67
2022-09-18T22:07:11.632Z,9.68
2022-09-18T22:09:39.963Z,9.67
2022-09-18T22:12:08.770Z,9.67
2022-09-18T22:14:38.395Z,9.60
2022-09-18T22:17:09.354Z,9.65
2022-09-18T22:19:41.324Z,9.57
2022-09-18T22:22:11.229Z,9.61
2022-09-18T22:24:39.999Z,9.53
2022-09-18T22:27:08.918Z,9.53
2022-09-18T22:29:39.447Z,9.39
2022-09-18T22:32:10.177Z,9.46
2022-09-18T22:34:38.628Z,9.40
2022-09-18T22:37:08.013Z,9.35
2022-09-18T22:39:36.327Z,9.23
2022-09-18T22:42:05.127Z,9.26
2022-09-18T22:44:33.458Z,9.16
2022-09-18T22:47:02.943Z,9.21
2022-09-18T22:49:32.708Z,9.20
2022-09-18T22:52:01.859Z,9.17
2022-09-18T22:54:30.426Z,9.16
2022-09-18T22:56:58.881Z,8.95
2022-09-18T22:59:28.586Z,9.02
2022-09-18T23:02:01.411Z,8.97
2022-09-18T23:04:31.328Z,8.95
2022-09-18T23:07:02.043Z,9.09
2022-09-18T23:09:32.033Z,8.96
2022-09-18T23:12:00.897Z,9.00
2022-09-18T23:14:31.369Z,8.89
2022-09-18T23:17:00.723Z,8.83
2022-09-18T23:19:34.141Z,8.79
2022-09-18T23:22:04.016Z,8.80
2022-09-18T23:24:32.945Z,8.83
2022-09-18T23:27:01.400Z,8.79
2022-09-18T23:29:31.900Z,8.76
2022-09-18T23:32:00.511Z,8.77
2022-09-18T23:34:33.774Z,8.73
2022-09-18T23:37:03.656Z,8.71
2022-09-18T23:39:33.968Z,8.73
2022-09-18T23:42:04.498Z,8.75
2022-09-18T23:44:33.232Z,8.78
2022-09-18T23:47:02.131Z,8.79
2022-09-18T23:49:30.766Z,8.76
2022-09-18T23:52:00.819Z,8.76
2022-09-18T23:54:32.442Z,8.91
2022-09-18T23:57:00.839Z,8.81
2022-09-18T23:59:29.583Z,8.89
